Time;durP1;ratioP1;P1;durP2;ratioP2;P2;SDS_P1;SDS_P2;PMS_P1;PMS_P2;Temp;Humidity;BMP_temperature;BMP_pressure;BME280_temperature;BME280_humidity;BME280_pressure;Samples;Min_cycle;Max_cycle;Signal;HPM_P1;HPM_P2
2023/05/16 00:01:11;;;;;;;10.20;8.35;;;;;;;12.79;72.88;100351.22;7397547;19;20011;-69
2023/05/16 00:03:48;;;;;;;11.25;7.97;;;;;;;12.74;73.22;100341.75;7396548;19;20022;-69
2023/05/16 00:06:17;;;;;;;11.00;7.90;;;;;;;12.73;73.31;100351.44;7397074;19;20505;-69
2023/05/16 00:08:45;;;;;;;9.27;8.25;;;;;;;12.69;73.48;100341.97;7397301;19;20026;-69
2023/05/16 00:11:14;;;;;;;9.50;8.50;;;;;;;12.66;73.56;100345.56;7395589;19;20526;-70
2023/05/16 00:13:43;;;;;;;12.38;9.57;;;;;;;12.64;73.65;100357.91;7396168;19;20402;-69
2023/05/16 00:16:13;;;;;;;11.63;8.93;;;;;;;12.60;74.36;100361.56;7397057;19;20017;-69
2023/05/16 00:18:44;;;;;;;9.75;8.75;;;;;;;12.54;74.98;100367.91;7397431;19;20021;-69
2023/05/16 00:21:13;;;;;;;13.18;8.93;;;;;;;12.48;74.84;100365.47;7396414;19;20014;-70
2023/05/16 00:23:42;;;;;;;10.45;9.00;;;;;;;12.42;75.24;100360.44;7394808;19;20070;-70
2023/05/16 00:26:10;;;;;;;11.60;9.38;;;;;;;12.38;76.40;100354.44;7396649;19;20019;-70
2023/05/16 00:28:39;;;;;;;13.18;10.07;;;;;;;12.34;76.93;100375.66;7396625;19;20018;-69
2023/05/16 00:31:07;;;;;;;11.52;10.32;;;;;;;12.29;77.21;100373.16;7395516;19;20014;-69
2023/05/16 00:33:36;;;;;;;15.45;11.00;;;;;;;12.25;77.30;100368.09;7394449;19;20015;-69
2023/05/16 00:36:07;;;;;;;13.48;10.45;;;;;;;12.15;78.19;100368.38;7395996;19;20011;-70
2023/05/16 00:38:36;;;;;;;13.38;9.60;;;;;;;12.12;78.50;100365.00;7396700;19;20032;-69
2023/05/16 00:41:05;;;;;;;10.93;9.65;;;;;;;12.11;77.99;100374.66;7396194;19;20074;-70
2023/05/16 00:43:33;;;;;;;11.80;10.68;;;;;;;12.09;78.22;100376.47;7394984;19;20025;-69
2023/05/16 00:46:02;;;;;;;11.90;10.70;;;;;;;12.05;78.25;100382.75;7396094;19;20418;-70
2023/05/16 00:48:30;;;;;;;13.48;10.25;;;;;;;12.01;78.40;100389.88;7396057;19;20019;-69
2023/05/16 00:50:59;;;;;;;11.43;10.18;;;;;;;12.00;78.09;100382.06;7395223;19;20415;-70
2023/05/16 00:53:30;;;;;;;12.20;9.50;;;;;;;11.98;78.15;100386.50;7395259;19;20018;-71
2023/05/16 00:56:00;;;;;;;12.77;10.35;;;;;;;11.95;78.59;100383.97;7396263;19;20039;-70
2023/05/16 00:58:29;;;;;;;11.73;10.52;;;;;;;11.90;78.93;100378.84;7395376;19;20018;-70
2023/05/16 01:00:58;;;;;;;12.55;11.30;;;;;;;11.88;78.75;100389.41;7395726;19;20026;-70
2023/05/16 01:03:26;;;;;;;11.18;10.07;;;;;;;11.85;79.05;100389.53;7394940;19;20039;-70
2023/05/16 01:05:55;;;;;;;14.15;10.85;;;;;;;11.83;79.08;100399.22;7395995;19;20107;-70
2023/05/16 01:08:23;;;;;;;13.40;10.73;;;;;;;11.80;79.10;100398.44;7395466;19;20021;-70
2023/05/16 01:11:03;;;;;;;14.38;10.95;;;;;;;11.77;79.04;100399.41;7394450;19;20533;-70
2023/05/16 01:13:38;;;;;;;13.00;10.63;;;;;;;11.74;79.36;100405.63;7395669;19;20022;-67
2023/05/16 01:16:15;;;;;;;11.70;10.50;;;;;;;11.71;79.11;100403.13;7396133;19;20022;-67
2023/05/16 01:18:52;;;;;;;11.95;10.45;;;;;;;11.69;78.80;100404.03;7395416;19;20014;-68
2023/05/16 01:21:37;;;;;;;13.70;11.27;;;;;;;11.65;79.96;100407.69;7394898;19;20551;-67
2023/05/16 01:24:15;;;;;;;12.02;10.85;;;;;;;11.61;79.77;100413.94;7393935;19;20030;-68
2023/05/16 01:26:48;;;;;;;14.27;11.60;;;;;;;11.55;79.98;100415.00;7395254;19;20014;-66
2023/05/16 01:29:17;;;;;;;13.88;11.90;;;;;;;11.51;79.58;100419.50;7395360;19;20014;-66
2023/05/16 01:31:46;;;;;;;15.73;11.80;;;;;;;11.47;79.68;100425.72;7393599;19;20018;-66
2023/05/16 01:34:14;;;;;;;15.32;11.32;;;;;;;11.44;79.65;100425.84;7393388;19;20049;-66
2023/05/16 01:36:50;;;;;;;13.40;12.07;;;;;;;11.41;79.70;100433.78;7394338;19;20419;-67
2023/05/16 01:39:24;;;;;;;12.25;10.77;;;;;;;11.38;79.60;100431.28;7394759;19;20362;-66
2023/05/16 01:42:03;;;;;;;12.70;11.25;;;;;;;11.34;80.67;100427.03;7394174;19;20537;-65
2023/05/16 01:44:35;;;;;;;13.23;11.25;;;;;;;11.30;80.57;100430.63;7393001;19;20031;-66
2023/05/16 01:47:09;;;;;;;11.15;9.90;;;;;;;11.24;80.20;100440.41;7399040;19;20019;-65
2023/05/16 01:49:43;;;;;;;12.07;10.73;;;;;;;11.21;80.45;100447.56;7402363;19;20031;-65
2023/05/16 01:52:16;;;;;;;12.13;10.40;;;;;;;11.14;80.95;100444.22;7399835;19;20021;-66
2023/05/16 01:54:48;;;;;;;13.63;11.00;;;;;;;11.15;80.70;100451.19;7399353;19;20042;-66
2023/05/16 01:57:21;;;;;;;13.93;12.25;;;;;;;11.11;80.50;100457.44;7401980;19;20022;-67
2023/05/16 01:59:50;;;;;;;16.37;12.17;;;;;;;11.07;80.82;100455.81;7401379;19;20038;-66
2023/05/16 02:02:20;;;;;;;12.75;11.00;;;;;;;11.05;80.82;100455.84;7401483;19;20015;-67
2023/05/16 02:04:48;;;;;;;15.80;11.40;;;;;;;11.00;82.08;100463.00;7398408;19;20031;-66
2023/05/16 02:07:17;;;;;;;14.73;11.73;;;;;;;10.96;81.13;100468.38;7400925;19;20018;-66
2023/05/16 02:09:45;;;;;;;16.23;11.95;;;;;;;10.91;80.85;100471.97;7401183;19;20018;-67
2023/05/16 02:12:14;;;;;;;15.30;11.07;;;;;;;10.87;81.25;100478.22;7399623;19;20039;-68
2023/05/16 02:14:51;;;;;;;13.40;11.18;;;;;;;10.83;81.23;100476.59;7399556;19;20015;-65
2023/05/16 02:17:20;;;;;;;13.63;10.93;;;;;;;10.78;81.44;100486.34;7401949;19;20011;-65
2023/05/16 02:19:49;;;;;;;13.68;10.88;;;;;;;10.73;81.37;100491.72;7400855;19;20017;-66
2023/05/16 02:22:17;;;;;;;15.57;10.60;;;;;;;10.69;81.21;100499.69;7399495;19;20011;-67
2023/05/16 02:24:46;;;;;;;12.75;10.35;;;;;;;10.64;81.02;100497.22;7398355;19;20025;-66
2023/05/16 02:27:14;;;;;;;13.35;10.27;;;;;;;10.61;81.35;100496.44;7400142;19;20014;-66
2023/05/16 02:29:45;;;;;;;11.85;9.73;;;;;;;10.56;81.33;100505.28;7400610;19;20014;-67
2023/05/16 02:32:14;;;;;;;11.10;9.50;;;;;;;10.54;81.09;100507.06;7398978;19;20018;-67
2023/05/16 02:34:42;;;;;;;12.50;10.55;;;;;;;10.51;81.18;100496.63;7398138;19;20026;-67
2023/05/16 02:37:11;;;;;;;11.57;10.32;;;;;;;10.48;81.26;100509.84;7399805;19;20018;-67
2023/05/16 02:39:39;;;;;;;14.55;10.52;;;;;;;10.42;81.60;100500.34;7400039;19;20063;-66
2023/05/16 02:42:09;;;;;;;15.15;10.57;;;;;;;10.38;81.77;100518.84;7399949;19;20477;-67
2023/05/16 02:44:37;;;;;;;11.65;10.40;;;;;;;10.35;81.22;100524.13;7397617;19;20043;-66
2023/05/16 02:47:08;;;;;;;13.57;10.48;;;;;;;10.32;81.21;100521.59;7400049;19;20015;-67
2023/05/16 02:49:37;;;;;;;15.25;10.30;;;;;;;10.27;80.85;100514.69;7400061;19;20015;-66
2023/05/16 02:52:06;;;;;;;12.93;10.95;;;;;;;10.24;81.27;100525.25;7398303;19;20022;-66
2023/05/16 02:54:35;;;;;;;14.23;11.52;;;;;;;10.19;81.27;100529.75;7398101;19;20022;-66
2023/05/16 02:57:03;;;;;;;11.05;9.90;;;;;;;10.17;81.03;100520.19;7399279;19;20027;-66
2023/05/16 02:59:31;;;;;;;13.40;9.98;;;;;;;10.15;80.80;100533.34;7399669;19;20023;-66
2023/05/16 03:02:00;;;;;;;13.45;11.10;;;;;;;10.13;80.40;100529.88;7399409;19;20028;-67
2023/05/16 03:04:31;;;;;;;15.23;11.80;;;;;;;10.06;80.74;100523.03;7397463;19;20035;-67
2023/05/16 03:07:00;;;;;;;13.90;12.50;;;;;;;10.03;80.99;100529.22;7399644;19;20090;-67
2023/05/16 03:09:28;;;;;;;14.07;12.32;;;;;;;10.01;80.72;100538.91;7399187;19;20027;-67
2023/05/16 03:11:58;;;;;;;14.77;12.50;;;;;;;9.97;81.36;100547.75;7397419;19;20502;-67
2023/05/16 03:14:26;;;;;;;15.75;12.73;;;;;;;9.93;81.19;100541.69;7397166;19;20094;-67
2023/05/16 03:16:55;;;;;;;14.77;12.27;;;;;;;9.92;81.26;100545.22;7398782;19;20014;-67
2023/05/16 03:19:23;;;;;;;16.95;13.32;;;;;;;9.88;81.31;100540.94;7398966;19;20086;-67
2023/05/16 03:21:55;;;;;;;19.30;14.50;;;;;;;9.87;81.16;100541.84;7398160;19;20023;-68
2023/05/16 03:24:24;;;;;;;19.17;14.35;;;;;;;9.85;81.00;100561.94;7397341;19;20014;-67
2023/05/16 03:26:52;;;;;;;17.65;14.98;;;;;;;9.79;81.42;100562.09;7398269;19;20015;-67
2023/05/16 03:29:21;;;;;;;19.45;14.00;;;;;;;9.80;81.39;100568.19;7398665;19;20076;-67
2023/05/16 03:31:49;;;;;;;16.70;15.00;;;;;;;9.79;81.88;100562.09;7397567;19;20022;-67
2023/05/16 03:34:24;;;;;;;16.98;14.35;;;;;;;9.78;82.34;100569.09;7396790;19;20031;-67
2023/05/16 03:36:55;;;;;;;16.58;14.82;;;;;;;9.75;82.39;100577.00;7397908;19;20018;-67
2023/05/16 03:39:24;;;;;;;17.17;15.32;;;;;;;9.74;81.82;100584.91;7398509;19;20027;-67
2023/05/16 03:41:55;;;;;;;19.00;14.82;;;;;;;9.75;81.71;100592.72;7398006;19;20095;-67
2023/05/16 03:44:23;;;;;;;20.38;16.02;;;;;;;9.75;81.96;100589.25;7396501;19;20091;-67
2023/05/16 03:46:54;;;;;;;22.02;14.02;;;;;;;9.75;81.62;100597.09;7397647;19;20014;-66
2023/05/16 03:49:28;;;;;;;17.55;15.63;;;;;;;9.73;81.55;100597.16;7397766;19;20543;-66
2023/05/16 03:51:59;;;;;;;18.02;15.07;;;;;;;9.76;81.73;100601.47;7396625;19;20557;-67
2023/05/16 03:54:28;;;;;;;18.88;14.80;;;;;;;9.76;81.92;100611.94;7396475;19;20019;-66
2023/05/16 03:56:56;;;;;;;16.80;13.68;;;;;;;9.75;81.57;100603.19;7397079;19;20019;-66
2023/05/16 03:59:25;;;;;;;17.05;15.23;;;;;;;9.75;81.49;100605.81;7397448;19;20063;-66
2023/05/16 04:01:53;;;;;;;20.65;15.18;;;;;;;9.76;82.34;100610.16;7397423;19;20073;-66
2023/05/16 04:04:22;;;;;;;18.10;15.50;;;;;;;9.73;81.60;100609.38;7395927;19;20018;-66
2023/05/16 04:06:50;;;;;;;17.23;15.10;;;;;;;9.70;82.22;100607.69;7398012;19;20015;-65
2023/05/16 04:09:21;;;;;;;18.42;14.95;;;;;;;9.64;82.63;100607.78;7396258;19;20428;-66
2023/05/16 04:11:50;;;;;;;22.10;15.98;;;;;;;9.61;82.35;100627.06;7396838;19;20085;-67
2023/05/16 04:14:19;;;;;;;19.70;15.48;;;;;;;9.58;83.10;100624.50;7395452;19;20014;-67
2023/05/16 04:16:47;;;;;;;16.60;14.10;;;;;;;9.54;83.32;100641.19;7397199;19;20022;-67
2023/05/16 04:19:16;;;;;;;18.15;15.18;;;;;;;9.56;82.74;100625.44;7396837;19;20022;-67
2023/05/16 04:21:44;;;;;;;17.80;14.43;;;;;;;9.55;83.33;100632.41;7396360;19;20018;-67
2023/05/16 04:24:13;;;;;;;21.17;14.73;;;;;;;9.54;83.21;100617.63;7394996;19;20017;-67
2023/05/16 04:26:44;;;;;;;17.50;14.55;;;;;;;9.51;82.92;100625.50;7396640;19;20018;-66
2023/05/16 04:29:13;;;;;;;19.42;14.27;;;;;;;9.51;83.44;100643.00;7396571;19;20086;-67
2023/05/16 04:31:42;;;;;;;17.45;14.77;;;;;;;9.49;83.26;100634.28;7396080;19;20033;-67
2023/05/16 04:34:11;;;;;;;15.98;13.90;;;;;;;9.41;83.74;100634.44;7394927;19;20089;-67
2023/05/16 04:36:40;;;;;;;16.30;13.57;;;;;;;9.45;83.39;100647.47;7395805;19;20018;-67
2023/05/16 04:39:08;;;;;;;17.58;14.55;;;;;;;9.42;83.70;100649.25;7396004;19;20014;-66
2023/05/16 04:41:37;;;;;;;19.02;13.77;;;;;;;9.38;83.38;100658.06;7395202;19;20019;-67
2023/05/16 04:44:10;;;;;;;17.42;13.10;;;;;;;9.37;83.27;100649.34;7394634;19;20025;-67
2023/05/16 04:46:38;;;;;;;16.40;14.52;;;;;;;9.39;83.37;100657.16;7395532;19;20043;-68
2023/05/16 04:49:07;;;;;;;16.85;13.55;;;;;;;9.42;82.88;100665.81;7395915;19;20014;-66
2023/05/16 04:51:35;;;;;;;17.30;12.75;;;;;;;9.43;83.32;100666.72;7395408;19;20022;-66
2023/05/16 04:54:04;;;;;;;13.15;10.45;;;;;;;9.45;82.57;100667.53;7394039;19;20090;-66
2023/05/16 04:56:33;;;;;;;12.15;10.75;;;;;;;9.47;82.24;100672.75;7394679;19;20506;-66
2023/05/16 04:59:01;;;;;;;15.77;11.27;;;;;;;9.45;82.26;100691.97;7393252;19;20464;-66
2023/05/16 05:01:32;;;;;;;13.57;9.80;;;;;;;9.44;81.93;100689.41;7394814;19;20027;-68
2023/05/16 05:04:01;;;;;;;11.18;9.60;;;;;;;9.42;81.98;100692.00;7394405;19;20034;-66
2023/05/16 05:06:30;;;;;;;12.02;8.55;;;;;;;9.40;82.08;100701.66;7393575;19;20014;-66
2023/05/16 05:08:58;;;;;;;14.55;9.68;;;;;;;9.39;82.01;100712.16;7393928;19;20028;-67
2023/05/16 05:11:27;;;;;;;12.07;9.38;;;;;;;9.39;81.92;100714.75;7394572;19;20018;-67
2023/05/16 05:13:56;;;;;;;12.27;9.32;;;;;;;9.40;81.68;100725.25;7393635;19;20031;-66
2023/05/16 05:16:24;;;;;;;11.48;9.40;;;;;;;9.41;81.61;100732.19;7393741;19;20035;-66
2023/05/16 05:18:56;;;;;;;12.90;9.05;;;;;;;9.47;81.34;100735.59;7393691;19;20037;-66
2023/05/16 05:21:24;;;;;;;10.40;7.63;;;;;;;9.50;81.34;100751.25;7396118;19;20032;-67
2023/05/16 05:23:53;;;;;;;12.57;8.20;;;;;;;9.54;80.86;100737.22;7398240;19;20080;-67
2023/05/16 05:26:21;;;;;;;11.38;7.97;;;;;;;9.54;80.61;100732.84;7401937;19;20094;-67
2023/05/16 05:28:51;;;;;;;9.00;7.60;;;;;;;9.55;80.58;100737.19;7401129;19;20594;-66
2023/05/16 05:31:19;;;;;;;10.63;7.22;;;;;;;9.58;80.42;100731.91;7402072;19;20018;-67
2023/05/16 05:33:48;;;;;;;11.88;7.22;;;;;;;9.61;80.27;100734.44;7399299;19;20029;-66
2023/05/16 05:36:19;;;;;;;11.45;7.78;;;;;;;9.60;80.28;100726.63;7401748;19;20019;-66
2023/05/16 05:38:47;;;;;;;7.32;6.38;;;;;;;9.64;80.31;100722.19;7401611;19;20485;-66
2023/05/16 05:41:16;;;;;;;10.30;7.15;;;;;;;9.65;79.97;100727.41;7401371;19;20498;-67
2023/05/16 05:43:45;;;;;;;9.43;6.72;;;;;;;9.69;80.09;100733.47;7399666;19;20384;-66
2023/05/16 05:46:13;;;;;;;11.80;7.40;;;;;;;9.71;79.90;100739.53;7401154;19;20022;-67
2023/05/16 05:48:42;;;;;;;10.52;6.78;;;;;;;9.70;79.94;100733.41;7401265;19;20100;-67
2023/05/16 05:51:12;;;;;;;11.65;7.50;;;;;;;9.70;79.83;100740.44;7402030;19;20021;-67
2023/05/16 05:53:43;;;;;;;11.40;7.82;;;;;;;9.70;80.00;100738.66;7399209;19;20037;-67
2023/05/16 05:56:12;;;;;;;11.25;6.90;;;;;;;9.73;79.83;100737.75;7401029;19;20023;-67
2023/05/16 05:58:42;;;;;;;11.15;7.47;;;;;;;9.75;80.06;100736.81;7400804;19;20384;-67
2023/05/16 06:01:12;;;;;;;11.68;7.70;;;;;;;9.78;79.61;100742.03;7401641;19;20019;-65
2023/05/16 06:03:41;;;;;;;8.93;7.25;;;;;;;9.81;79.66;100755.94;7399425;19;20481;-66
2023/05/16 06:06:10;;;;;;;9.30;6.60;;;;;;;9.80;79.66;100762.94;7400613;19;20426;-67
2023/05/16 06:08:38;;;;;;;11.85;8.05;;;;;;;9.78;79.79;100757.75;7400696;19;20023;-66
2023/05/16 06:11:10;;;;;;;11.48;7.50;;;;;;;9.82;79.55;100770.78;7400740;19;20010;-66
2023/05/16 06:13:38;;;;;;;14.05;7.45;;;;;;;9.84;79.48;100756.75;7398123;19;20363;-66
2023/05/16 06:16:07;;;;;;;10.13;6.95;;;;;;;9.86;79.44;100770.69;7400408;19;20019;-66
2023/05/16 06:18:35;;;;;;;11.77;6.90;;;;;;;9.91;79.45;100773.25;7400424;19;20011;-66
2023/05/16 06:21:04;;;;;;;13.00;7.40;;;;;;;9.92;79.52;100770.59;7400304;19;20019;-66
2023/05/16 06:23:33;;;;;;;12.32;6.78;;;;;;;9.92;79.58;100780.19;7398456;19;20011;-65
2023/05/16 06:26:01;;;;;;;11.52;6.95;;;;;;;9.91;79.34;100775.88;7399907;19;20031;-68
2023/05/16 06:28:33;;;;;;;9.05;6.97;;;;;;;9.94;79.31;100779.31;7400295;19;20010;-66
2023/05/16 06:31:01;;;;;;;13.73;6.78;;;;;;;9.97;79.09;100782.72;7400483;19;20386;-67
2023/05/16 06:33:30;;;;;;;10.50;6.80;;;;;;;10.00;79.13;100782.69;7397099;19;20014;-66
2023/05/16 06:35:58;;;;;;;10.02;6.63;;;;;;;10.00;79.19;100786.16;7400578;19;20037;-67
2023/05/16 06:38:27;;;;;;;9.43;6.35;;;;;;;10.02;79.27;100788.75;7399857;19;20014;-66
2023/05/16 06:40:55;;;;;;;9.07;6.65;;;;;;;10.03;79.23;100786.09;7399145;19;20022;-66
2023/05/16 06:43:24;;;;;;;10.30;7.25;;;;;;;10.02;79.28;100800.13;7398441;19;20031;-67
2023/05/16 06:45:55;;;;;;;11.43;6.55;;;;;;;10.03;78.98;100793.09;7397657;19;20018;-66
2023/05/16 06:48:24;;;;;;;9.35;7.30;;;;;;;9.99;79.38;100781.81;7399936;19;20010;-67
2023/05/16 06:50:53;;;;;;;8.80;6.70;;;;;;;10.04;79.41;100798.31;7396550;19;20502;-67
2023/05/16 06:53:22;;;;;;;10.48;5.88;;;;;;;10.07;79.34;100807.88;7397477;19;20025;-67
2023/05/16 06:55:50;;;;;;;12.32;6.30;;;;;;;10.09;79.13;100811.34;7398895;19;20015;-65
2023/05/16 06:58:19;;;;;;;7.70;6.07;;;;;;;10.13;79.16;100812.16;7398867;19;20022;-66
2023/05/16 07:00:47;;;;;;;8.57;6.05;;;;;;;10.15;79.08;100815.59;7398874;19;20034;-66
2023/05/16 07:03:19;;;;;;;9.32;5.97;;;;;;;10.15;79.05;100807.72;7398089;19;20068;-66
2023/05/16 07:05:47;;;;;;;10.00;5.93;;;;;;;10.19;78.97;100805.03;7398717;19;20011;-66
2023/05/16 07:08:16;;;;;;;8.90;5.47;;;;;;;10.24;78.79;100803.19;7399253;19;20126;-66
2023/05/16 07:10:44;;;;;;;8.60;5.32;;;;;;;10.29;78.79;100805.72;7399469;19;20027;-65
2023/05/16 07:13:13;;;;;;;9.50;6.15;;;;;;;10.32;78.72;100813.50;7397653;19;20078;-66
2023/05/16 07:15:41;;;;;;;9.60;5.88;;;;;;;10.33;78.65;100814.41;7398765;19;20014;-67
2023/05/16 07:18:10;;;;;;;9.02;6.60;;;;;;;10.35;78.62;100812.59;7398206;19;20014;-66
2023/05/16 07:20:41;;;;;;;11.35;6.28;;;;;;;10.40;78.32;100814.28;7397976;19;20014;-67
2023/05/16 07:23:09;;;;;;;8.27;6.25;;;;;;;10.48;78.12;100816.75;7397065;19;20010;-65
2023/05/16 07:25:38;;;;;;;9.50;6.57;;;;;;;10.56;77.80;100812.22;7398122;19;20023;-66
2023/05/16 07:28:07;;;;;;;11.57;6.43;;;;;;;10.62;77.38;100812.97;7398372;19;20015;-66
2023/05/16 07:30:35;;;;;;;12.18;8.07;;;;;;;10.68;77.17;100815.44;7398319;19;20031;-67
2023/05/16 07:33:04;;;;;;;12.82;9.02;;;;;;;10.73;76.36;100821.50;7397032;19;20014;-67
2023/05/16 07:35:33;;;;;;;9.50;7.13;;;;;;;10.80;76.45;100822.22;7397899;19;20422;-66
2023/05/16 07:38:04;;;;;;;10.27;7.50;;;;;;;10.91;76.17;100826.31;7398823;19;20015;-66
2023/05/16 07:40:32;;;;;;;10.38;7.20;;;;;;;11.01;76.07;100826.16;7398302;19;20027;-67
2023/05/16 07:43:01;;;;;;;11.68;7.07;;;;;;;11.12;75.64;100826.78;7396628;19;20032;-67
2023/05/16 07:45:30;;;;;;;8.52;7.45;;;;;;;11.20;74.70;100840.56;7396403;19;20434;-65
2023/05/16 07:47:58;;;;;;;10.55;7.13;;;;;;;11.21;74.42;100829.19;7397368;19;20035;-65
2023/05/16 07:50:27;;;;;;;7.95;6.63;;;;;;;11.19;73.90;100823.09;7397723;19;20394;-66
2023/05/16 07:52:56;;;;;;;10.05;6.60;;;;;;;11.20;74.29;100843.19;7396118;19;20043;-66
2023/05/16 07:55:27;;;;;;;9.82;7.13;;;;;;;11.23;74.10;100845.78;7397014;19;20039;-65
2023/05/16 07:57:56;;;;;;;12.00;8.77;;;;;;;11.25;73.40;100845.72;7397090;19;20485;-66
2023/05/16 08:00:25;;;;;;;9.82;6.18;;;;;;;11.27;73.67;100849.16;7397432;19;20031;-66
2023/05/16 08:02:53;;;;;;;9.73;7.22;;;;;;;11.31;73.69;100853.47;7396534;19;20025;-68
2023/05/16 08:05:23;;;;;;;7.07;6.13;;;;;;;11.31;73.21;100839.44;7397231;19;20039;-69
2023/05/16 08:07:57;;;;;;;7.13;6.45;;;;;;;11.30;73.07;100845.59;7397117;19;20022;-67
2023/05/16 08:10:28;;;;;;;7.30;6.45;;;;;;;11.28;73.07;100850.91;7399187;19;20011;-69
2023/05/16 08:12:57;;;;;;;7.03;6.20;;;;;;;11.27;73.22;100850.94;7397784;19;20018;-69
2023/05/16 08:15:26;;;;;;;8.30;6.65;;;;;;;11.28;73.24;100850.03;7396958;19;20414;-68
2023/05/16 08:18:00;;;;;;;16.25;8.25;;;;;;;11.25;73.03;100854.47;7396915;19;20071;-70
2023/05/16 08:20:28;;;;;;;7.85;6.45;;;;;;;11.29;73.10;100860.50;7396931;19;20014;-68
2023/05/16 08:22:57;;;;;;;8.05;6.30;;;;;;;11.28;72.79;100860.56;7394975;19;20018;-70
2023/05/16 08:25:28;;;;;;;9.68;6.97;;;;;;;11.26;72.87;100857.97;7396265;19;20010;-70
2023/05/16 08:27:56;;;;;;;7.28;6.00;;;;;;;11.24;72.72;100863.22;7396336;19;20015;-68
2023/05/16 08:30:25;;;;;;;7.88;5.82;;;;;;;11.22;72.64;100862.41;7395596;19;20025;-68
2023/05/16 08:32:53;;;;;;;6.57;5.18;;;;;;;11.20;72.44;100866.84;7395763;19;20372;-67
2023/05/16 08:35:22;;;;;;;5.28;4.78;;;;;;;11.20;72.60;100869.47;7395917;19;20378;-67
2023/05/16 08:37:51;;;;;;;5.85;5.25;;;;;;;11.18;72.36;100866.00;7395474;19;20025;-69
2023/05/16 08:40:20;;;;;;;7.57;5.13;;;;;;;11.18;72.56;100875.66;7395934;19;20070;-68
2023/05/16 08:42:52;;;;;;;6.00;5.03;;;;;;;11.24;72.52;100883.38;7395435;19;20022;-67
2023/05/16 08:45:21;;;;;;;5.47;4.95;;;;;;;11.29;72.39;100884.16;7396412;19;20018;-67
2023/05/16 08:47:51;;;;;;;6.03;4.40;;;;;;;11.33;72.41;100888.44;7395586;19;20014;-67
2023/05/16 08:50:20;;;;;;;5.28;4.60;;;;;;;11.36;72.06;100880.50;7395703;19;20018;-67
2023/05/16 08:52:53;;;;;;;6.68;4.55;;;;;;;11.38;71.83;100881.31;7395307;19;20015;-67
2023/05/16 08:55:22;;;;;;;6.28;4.88;;;;;;;11.34;71.65;100886.69;7395448;19;20015;-69
2023/05/16 08:57:56;;;;;;;5.70;5.03;;;;;;;11.37;71.89;100887.47;7396333;19;20018;-69
2023/05/16 09:00:26;;;;;;;5.32;4.28;;;;;;;11.39;72.06;100890.06;7395262;19;20098;-69
2023/05/16 09:03:01;;;;;;;4.63;4.05;;;;;;;11.38;72.51;100891.81;7395222;19;20021;-71
2023/05/16 09:05:31;;;;;;;8.32;4.88;;;;;;;11.39;72.46;100885.66;7395295;19;20019;-71
2023/05/16 09:08:00;;;;;;;7.40;4.45;;;;;;;11.36;72.73;100885.75;7395325;19;20074;-68
2023/05/16 09:10:29;;;;;;;6.30;3.90;;;;;;;11.34;72.98;100884.91;7392575;19;20487;-68
2023/05/16 09:13:00;;;;;;;5.40;3.67;;;;;;;11.33;73.09;100892.81;7394283;19;20482;-68
2023/05/16 09:15:34;;;;;;;5.65;3.83;;;;;;;11.28;73.00;100898.19;7394145;19;20018;-68
2023/05/16 09:18:04;;;;;;;5.35;4.07;;;;;;;11.25;73.06;100883.34;7395329;19;20085;-66
2023/05/16 09:20:33;;;;;;;9.50;4.70;;;;;;;11.27;73.34;100890.34;7394534;19;20038;-67
2023/05/16 09:23:02;;;;;;;4.75;3.47;;;;;;;11.20;72.87;100874.72;7393490;19;20025;-67
2023/05/16 09:25:32;;;;;;;4.63;3.70;;;;;;;11.29;72.88;100889.41;7394132;19;20011;-67
2023/05/16 09:28:03;;;;;;;10.35;3.67;;;;;;;11.32;72.96;100889.34;7394419;19;20026;-68
2023/05/16 09:30:33;;;;;;;5.18;2.97;;;;;;;11.36;72.84;100893.63;7393941;19;20028;-67
2023/05/16 09:33:01;;;;;;;6.85;3.63;;;;;;;11.37;72.52;100886.59;7393886;19;20485;-66
2023/05/16 09:35:30;;;;;;;8.38;3.83;;;;;;;11.38;71.57;100899.69;7393841;19;20016;-67
2023/05/16 09:37:59;;;;;;;5.40;3.10;;;;;;;11.37;71.93;100897.09;7394093;19;20360;-67
2023/05/16 09:40:27;;;;;;;5.60;2.75;;;;;;;11.39;71.39;100897.94;7393905;19;20014;-67
2023/05/16 09:43:07;;;;;;;8.32;3.47;;;;;;;11.43;71.35;100882.97;7393496;19;20691;-67
2023/05/16 09:45:37;;;;;;;5.60;3.08;;;;;;;11.40;71.10;100870.78;7394229;19;20070;-67
2023/05/16 09:48:07;;;;;;;5.55;3.03;;;;;;;11.56;71.03;100876.53;7393863;19;20083;-68
2023/05/16 09:50:36;;;;;;;5.15;2.95;;;;;;;11.65;70.58;100876.31;7393081;19;20023;-68
2023/05/16 09:53:05;;;;;;;5.70;3.10;;;;;;;11.74;69.25;100888.38;7393242;19;20018;-68
2023/05/16 09:55:34;;;;;;;6.78;3.22;;;;;;;11.80;69.65;100879.47;7393215;19;20508;-67
2023/05/16 09:58:03;;;;;;;5.28;2.70;;;;;;;11.85;69.40;100891.59;7393615;19;20500;-67
2023/05/16 10:00:35;;;;;;;3.92;2.33;;;;;;;11.92;69.05;100886.16;7393201;19;20023;-68
2023/05/16 10:03:04;;;;;;;5.93;2.80;;;;;;;11.96;69.25;100894.00;7392806;19;20018;-67
2023/05/16 10:05:33;;;;;;;7.22;2.90;;;;;;;11.99;68.67;100907.06;7393852;19;20017;-67
2023/05/16 10:08:04;;;;;;;8.10;2.90;;;;;;;11.96;68.48;100908.91;7398375;19;20489;-66
2023/05/16 10:10:37;;;;;;;5.88;3.35;;;;;;;12.02;68.69;100909.63;7400807;19;20485;-67
2023/05/16 10:13:09;;;;;;;4.43;2.50;;;;;;;12.05;68.89;100911.31;7400722;19;20010;-68
2023/05/16 10:15:41;;;;;;;4.80;3.15;;;;;;;12.09;68.46;100912.94;7400241;19;20369;-66
2023/05/16 10:18:13;;;;;;;5.07;2.67;;;;;;;12.12;67.70;100922.53;7400725;19;20019;-68
2023/05/16 10:20:43;;;;;;;5.53;2.63;;;;;;;12.16;65.58;100918.94;7400571;19;20101;-68
2023/05/16 10:23:18;;;;;;;6.38;3.00;;;;;;;12.27;66.21;100916.88;7398922;19;20017;-67
2023/05/16 10:25:47;;;;;;;6.80;2.58;;;;;;;12.38;65.83;100916.59;7401267;19;20039;-70
2023/05/16 10:28:16;;;;;;;7.50;2.35;;;;;;;12.41;64.19;100911.25;7399575;19;20021;-70
2023/05/16 10:30:49;;;;;;;5.97;2.88;;;;;;;12.40;65.18;100909.53;7399565;19;20021;-70
2023/05/16 10:33:19;;;;;;;6.50;2.70;;;;;;;12.47;65.32;100918.13;7399274;19;20018;-70
2023/05/16 10:35:49;;;;;;;6.93;2.28;;;;;;;12.37;62.87;100928.91;7400356;19;20022;-70
2023/05/16 10:38:20;;;;;;;6.60;2.10;;;;;;;12.28;62.93;100926.47;7399989;19;20038;-69
2023/05/16 10:40:50;;;;;;;8.55;3.45;;;;;;;12.19;63.97;100919.69;7400114;19;20018;-70
2023/05/16 10:43:26;;;;;;;7.50;2.55;;;;;;;12.22;63.14;100917.00;7398472;19;20499;-70
2023/05/16 10:46:05;;;;;;;7.88;2.53;;;;;;;12.23;63.88;100920.47;7400899;19;20015;-70
2023/05/16 10:48:35;;;;;;;6.60;2.47;;;;;;;12.26;64.05;100923.03;7400051;19;20023;-66
2023/05/16 10:51:04;;;;;;;4.80;1.60;;;;;;;12.25;64.17;100929.22;7399893;19;20035;-68
2023/05/16 10:53:35;;;;;;;6.68;2.00;;;;;;;12.24;64.11;100942.41;7397867;19;20436;-67
2023/05/16 10:56:11;;;;;;;9.65;2.17;;;;;;;12.22;63.53;100950.34;7399458;19;20011;-68
2023/05/16 10:58:48;;;;;;;11.77;2.38;;;;;;;12.19;63.79;100946.00;7398962;19;20027;-66
2023/05/16 11:01:24;;;;;;;12.55;2.90;;;;;;;12.19;64.26;100940.72;7398967;19;20018;-65
2023/05/16 11:04:07;;;;;;;6.30;2.03;;;;;;;12.19;63.83;100950.41;7397881;19;20035;-68
2023/05/16 11:06:37;;;;;;;7.80;2.65;;;;;;;12.23;64.31;100952.03;7398943;19;20035;-68
2023/05/16 11:09:21;;;;;;;8.55;2.03;;;;;;;12.27;63.93;100945.81;7398419;19;20014;-70
2023/05/16 11:11:56;;;;;;;5.45;2.35;;;;;;;12.37;63.52;100949.06;7398118;19;20018;-69
2023/05/16 11:14:25;;;;;;;6.63;2.50;;;;;;;12.44;63.36;100944.53;7396421;19;20014;-69
2023/05/16 11:17:03;;;;;;;6.28;2.00;;;;;;;12.47;62.00;100961.09;7399027;19;20011;-73
2023/05/16 11:19:34;;;;;;;6.28;2.08;;;;;;;12.50;62.30;100955.75;7398688;19;20014;-70
2023/05/16 11:22:16;;;;;;;8.13;2.42;;;;;;;12.48;61.83;100949.66;7397887;19;20369;-70
2023/05/16 11:24:54;;;;;;;9.35;2.60;;;;;;;12.46;62.28;100942.69;7394627;19;20082;-70
2023/05/16 11:27:25;;;;;;;4.00;1.92;;;;;;;12.51;62.29;100956.59;7394826;19;20103;-71
2023/05/16 11:29:54;;;;;;;7.25;2.20;;;;;;;12.55;62.40;100943.31;7397224;19;20327;-70
2023/05/16 11:32:25;;;;;;;8.98;1.98;;;;;;;12.58;62.27;100963.44;7397446;19;20031;-70